createdAt,value
2018-10-03T01:05:45.861Z,35.1
2018-10-03T01:05:56.703Z,35
2018-10-03T01:06:46.757Z,35.1
2018-10-03T01:07:36.771Z,35
2018-10-03T01:08:26.036Z,35.1
2018-10-03T01:09:16.640Z,35
2018-10-03T01:10:06.455Z,35
2018-10-03T01:10:57.518Z,35
2018-10-03T01:11:46.816Z,35
2018-10-03T01:12:37.151Z,35
2018-10-03T01:13:26.696Z,35
2018-10-03T01:14:17.030Z,35
2018-10-03T01:15:07.371Z,35
2018-10-03T01:15:57.383Z,35
2018-10-03T01:16:47.233Z,34.9
2018-10-03T01:17:37.337Z,35
2018-10-03T01:18:27.040Z,34.9
2018-10-03T01:19:16.550Z,34.9
2018-10-03T01:20:06.893Z,34.9
2018-10-03T01:20:57.681Z,34.9
2018-10-03T01:21:47.257Z,34.9
2018-10-03T01:22:37.422Z,34.9
2018-10-03T01:23:26.930Z,34.9
2018-10-03T01:24:17.284Z,34.9
2018-10-03T01:25:07.625Z,34.9
2018-10-03T01:25:57.385Z,34.9
2018-10-03T01:26:47.477Z,34.9
2018-10-03T01:27:37.254Z,34.9
2018-10-03T01:28:27.910Z,34.9
2018-10-03T01:29:17.070Z,34.9
2018-10-03T01:30:07.644Z,34.9
2018-10-03T01:30:58.022Z,34.9
2018-10-03T01:31:48.015Z,34.9
2018-10-03T01:32:38.369Z,34.9
2018-10-03T01:33:27.588Z,34.9
2018-10-03T01:34:17.919Z,34.9
2018-10-03T01:35:08.322Z,34.9
2018-10-03T01:35:58.616Z,34.9
2018-10-03T01:36:48.411Z,34.9
2018-10-03T01:37:38.476Z,34.9
2018-10-03T01:38:28.552Z,34.9
2018-10-03T01:39:18.599Z,34.9
2018-10-03T01:40:08.659Z,34.9
2018-10-03T01:40:58.694Z,34.9
2018-10-03T01:41:49.069Z,34.9
2018-10-03T01:42:39.074Z,34.9
2018-10-03T01:43:29.239Z,34.9
2018-10-03T01:44:19.231Z,34.8
2018-10-03T01:45:09.336Z,34.8
2018-10-03T01:45:59.059Z,34.8
2018-10-03T01:46:49.733Z,34.8
2018-10-03T01:47:38.949Z,34.8
2018-10-03T01:48:29.810Z,34.8
2018-10-03T01:49:19.623Z,34.8
2018-10-03T01:50:09.963Z,34.8
2018-10-03T01:51:00.049Z,34.8
2018-10-03T01:51:49.523Z,34.8
2018-10-03T01:52:39.866Z,34.8
2018-10-03T01:53:29.930Z,34.8
2018-10-03T01:54:20.257Z,34.8
2018-10-03T01:55:09.506Z,34.8
2018-10-03T01:56:00.094Z,34.8
2018-10-03T01:56:49.348Z,34.8
2018-10-03T01:57:40.508Z,34.8
2018-10-03T01:58:30.548Z,34.8
2018-10-03T01:59:20.080Z,34.8
2018-10-03T02:00:10.387Z,34.8
2018-10-03T02:01:00.740Z,34.8
2018-10-03T02:01:50.583Z,34.8
2018-10-03T02:02:40.324Z,34.8
2018-10-03T02:03:30.120Z,34.8
2018-10-03T02:04:21.006Z,34.8
2018-10-03T02:05:10.477Z,34.8
2018-10-03T02:06:00.887Z,34.8
2018-10-03T02:06:51.170Z,34.8
2018-10-03T02:07:40.979Z,34.8
2018-10-03T02:08:30.695Z,34.7
2018-10-03T02:09:21.089Z,34.8
2018-10-03T02:10:11.432Z,34.7
2018-10-03T02:11:01.226Z,34.7
2018-10-03T02:11:51.284Z,34.7
2018-10-03T02:12:41.067Z,34.7
2018-10-03T02:13:31.704Z,34.7
2018-10-03T02:14:21.755Z,34.7
2018-10-03T02:15:11.242Z,34.7
2018-10-03T02:16:00.762Z,34.7
2018-10-03T02:16:51.687Z,34.7
2018-10-03T02:17:41.744Z,34.7
2018-10-03T02:18:31.309Z,34.7
2018-10-03T02:19:21.901Z,34.7
2018-10-03T02:20:11.345Z,34.7
2018-10-03T02:21:01.973Z,34.7
2018-10-03T02:21:51.475Z,34.6
2018-10-03T02:22:42.321Z,34.7
2018-10-03T02:23:32.755Z,34.7
2018-10-03T02:24:21.619Z,34.7
2018-10-03T02:25:12.269Z,34.6
2018-10-03T02:26:02.614Z,34.6
2018-10-03T02:26:51.249Z,34.6
2018-10-03T02:27:41.893Z,34.6
2018-10-03T02:28:32.199Z,34.7
2018-10-03T02:29:22.289Z,34.6
2018-10-03T02:30:11.822Z,34.6
2018-10-03T02:31:02.758Z,34.6
2018-10-03T02:31:53.035Z,34.6
2018-10-03T02:32:42.001Z,34.6
2018-10-03T02:33:32.656Z,34.6
2018-10-03T02:34:22.675Z,34.6
2018-10-03T02:35:12.745Z,34.6
2018-10-03T02:36:02.806Z,34.6
2018-10-03T02:36:53.476Z,34.6
2018-10-03T02:37:42.378Z,34.6
2018-10-03T02:38:33.275Z,34.6
2018-10-03T02:39:23.585Z,34.6
2018-10-03T02:40:13.125Z,34.6
2018-10-03T02:41:03.108Z,34.6
2018-10-03T02:41:53.251Z,34.6
2018-10-03T02:42:43.283Z,34.6
2018-10-03T02:43:33.632Z,34.6
2018-10-03T02:44:23.407Z,34.6
2018-10-03T02:45:13.781Z,34.6
2018-10-03T02:46:03.965Z,34.6
2018-10-03T02:46:53.914Z,34.6
2018-10-03T02:47:43.638Z,34.6
2018-10-03T02:48:34.037Z,34.6
2018-10-03T02:49:23.752Z,34.6
2018-10-03T02:50:14.167Z,34.6
2018-10-03T02:51:04.515Z,34.6
2018-10-03T02:51:54.015Z,34.6
2018-10-03T02:52:44.292Z,34.6
2018-10-03T02:53:34.672Z,34.6
2018-10-03T02:54:24.148Z,34.5
2018-10-03T02:55:14.508Z,34.6
2018-10-03T02:56:04.570Z,34.5
2018-10-03T02:56:54.875Z,34.5
2018-10-03T02:57:44.130Z,34.5
2018-10-03T02:58:34.894Z,34.6
2018-10-03T02:59:25.320Z,34.5
2018-10-03T03:00:14.937Z,34.5
2018-10-03T03:01:04.937Z,34.5
2018-10-03T03:01:55.906Z,34.5
2018-10-03T03:02:44.481Z,34.5
2018-10-03T03:03:35.383Z,34.5
2018-10-03T03:04:25.179Z,34.5
2018-10-03T03:05:15.557Z,34.4
2018-10-03T03:06:05.097Z,34.4
2018-10-03T03:06:55.349Z,34.4
2018-10-03T03:07:45.169Z,34.4
2018-10-03T03:08:37.462Z,34.4
2018-10-03T03:09:25.950Z,34.4
2018-10-03T03:10:15.909Z,34.4
2018-10-03T03:11:05.417Z,34.4
2018-10-03T03:11:56.276Z,34.4
2018-10-03T03:12:45.546Z,34.4
2018-10-03T03:13:35.849Z,34.4
2018-10-03T03:14:25.884Z,34.4
2018-10-03T03:15:15.969Z,34.4
2018-10-03T03:16:06.136Z,34.4
2018-10-03T03:16:56.128Z,34.4
2018-10-03T03:17:46.187Z,34.4
2018-10-03T03:18:36.221Z,34.4
2018-10-03T03:19:26.531Z,34.4
2018-10-03T03:20:16.074Z,34.4
2018-10-03T03:21:05.862Z,34.4
2018-10-03T03:21:56.188Z,34.4
2018-10-03T03:22:46.538Z,34.4
2018-10-03T03:23:36.655Z,34.4
2018-10-03T03:24:26.688Z,34.4
2018-10-03T03:25:17.048Z,34.4
2018-10-03T03:26:07.708Z,34.4
2018-10-03T03:26:56.828Z,34.4
2018-10-03T03:27:47.168Z,34.4
2018-10-03T03:28:36.764Z,34.4
2018-10-03T03:29:27.040Z,34.4
2018-10-03T03:30:17.063Z,34.4
2018-10-03T03:31:07.190Z,34.4
2018-10-03T03:31:57.027Z,34.4
2018-10-03T03:32:47.354Z,34.4
2018-10-03T03:33:37.070Z,34.3
2018-10-03T03:34:27.659Z,34.4
2018-10-03T03:35:16.623Z,34.3
2018-10-03T03:36:07.549Z,34.3
2018-10-03T03:36:57.017Z,34.3
2018-10-03T03:37:47.355Z,34.3
2018-10-03T03:38:37.152Z,34.3
2018-10-03T03:39:28.104Z,34.3
2018-10-03T03:40:18.439Z,34.3
2018-10-03T03:41:07.605Z,34.3
2018-10-03T03:41:57.954Z,34.3
2018-10-03T03:42:48.526Z,34.3
2018-10-03T03:43:38.094Z,34.3
2018-10-03T03:44:27.589Z,34.3
2018-10-03T03:45:18.256Z,34.3
2018-10-03T03:46:08.217Z,34.3
2018-10-03T03:46:57.791Z,34.3
2018-10-03T03:47:48.094Z,34.3
2018-10-03T03:48:38.476Z,34.3
2018-10-03T03:49:28.232Z,34.3
2018-10-03T03:50:18.834Z,34.3
2018-10-03T03:51:08.940Z,34.3
2018-10-03T03:51:58.123Z,34.3
2018-10-03T03:52:47.938Z,34.3
2018-10-03T03:53:38.948Z,34.3
2018-10-03T03:54:28.866Z,34.3
2018-10-03T03:55:18.168Z,34.3
2018-10-03T03:56:09.071Z,34.3
2018-10-03T03:56:59.355Z,34.3
2018-10-03T03:57:49.416Z,34.3
2018-10-03T03:58:38.923Z,34.3
2018-10-03T03:59:29.097Z,34.3
2018-10-03T04:00:19.613Z,34.3
2018-10-03T04:01:09.107Z,34.3
2018-10-03T04:01:58.896Z,34.3
2018-10-03T04:02:48.639Z,34.3
2018-10-03T04:03:39.286Z,34.2
2018-10-03T04:04:29.662Z,34.2
2018-10-03T04:05:19.425Z,34.2
2018-10-03T04:06:10.014Z,34.2
2018-10-03T04:06:59.860Z,34.2
2018-10-03T04:07:49.865Z,34.2
2018-10-03T04:08:39.946Z,34.2
2018-10-03T04:09:29.437Z,34.2
2018-10-03T04:10:20.091Z,34.2
2018-10-03T04:11:09.611Z,34.2
2018-10-03T04:11:59.615Z,34.2
2018-10-03T04:12:50.517Z,34.2
2018-10-03T04:13:39.490Z,34.2
2018-10-03T04:14:30.675Z,34.2
2018-10-03T04:15:20.733Z,34.2
2018-10-03T04:16:10.515Z,34.2
2018-10-03T04:17:00.274Z,34.1
2018-10-03T04:17:50.061Z,34.2
2018-10-03T04:18:40.680Z,34.2
2018-10-03T04:19:31.019Z,34.1
2018-10-03T04:20:20.812Z,34.1
2018-10-03T04:21:10.347Z,34.1
2018-10-03T04:22:01.395Z,34.1
2018-10-03T04:22:51.565Z,34.1
2018-10-03T04:23:40.198Z,34.1
2018-10-03T04:24:31.134Z,34.1
2018-10-03T04:25:21.253Z,34.1
2018-10-03T04:26:10.118Z,34.1
2018-10-03T04:27:01.564Z,34.1
2018-10-03T04:27:51.414Z,34.1
2018-10-03T04:28:41.126Z,34.1
2018-10-03T04:29:30.907Z,34.1
2018-10-03T04:30:21.236Z,34.1
2018-10-03T04:31:11.324Z,34.1
2018-10-03T04:32:01.956Z,34.1
2018-10-03T04:32:51.486Z,34.1
2018-10-03T04:33:41.502Z,34.1
2018-10-03T04:34:32.117Z,34.1
2018-10-03T04:35:22.179Z,34.1
2018-10-03T04:36:11.695Z,34.1
2018-10-03T04:54:35.134Z,32.6
2018-10-03T04:55:24.937Z,32.6
2018-10-03T04:56:14.434Z,32.6
2018-10-03T04:57:05.101Z,32.5
2018-10-03T04:57:54.556Z,32.5
2018-10-03T04:58:45.184Z,32.5
2018-10-03T04:59:36.101Z,32.5
2018-10-03T05:00:25.367Z,32.5
2018-10-03T05:01:15.079Z,32.4
2018-10-03T05:02:04.836Z,32.4
2018-10-03T05:02:55.731Z,32.4
2018-10-03T05:03:45.266Z,32.4
2018-10-03T05:04:36.502Z,32.4
2018-10-03T05:05:25.644Z,32.3
2018-10-03T05:06:16.008Z,32.3
2018-10-03T05:07:06.054Z,32.3
2018-10-03T05:07:56.394Z,32.3
2018-10-03T05:08:46.195Z,32.2
2018-10-03T05:09:34.788Z,32.2
2018-10-03T05:10:26.305Z,32.2
2018-10-03T05:11:16.415Z,32.1
2018-10-03T05:12:06.720Z,32.1
2018-10-03T05:12:56.520Z,32.1
2018-10-03T05:13:46.840Z,32.1
2018-10-03T05:14:36.073Z,32.1
2018-10-03T05:15:25.853Z,32.1
2018-10-03T05:16:16.450Z,32.1
2018-10-03T05:17:06.820Z,32.1
2018-10-03T05:17:57.153Z,32.1
2018-10-03T05:18:46.930Z,32.1
2018-10-03T05:19:37.491Z,32
2018-10-03T05:20:26.755Z,32.1
2018-10-03T05:21:17.092Z,32
2018-10-03T05:22:07.518Z,32
2018-10-03T05:22:56.790Z,32
2018-10-03T05:23:47.701Z,32
2018-10-03T05:24:37.993Z,32
2018-10-03T05:25:26.926Z,32
2018-10-03T05:26:17.471Z,31.9
2018-10-03T05:27:07.300Z,31.9
2018-10-03T05:27:57.670Z,31.9
2018-10-03T05:28:47.149Z,31.9
2018-10-03T05:29:38.004Z,31.9
2018-10-03T05:30:27.226Z,31.9
2018-10-03T05:31:17.872Z,31.9
2018-10-03T05:32:07.952Z,31.9
2018-10-03T05:32:57.417Z,31.9
2018-10-03T05:33:47.494Z,31.9
2018-10-03T05:34:38.092Z,31.9
2018-10-03T05:35:27.880Z,31.9
2018-10-03T05:36:18.483Z,31.9
2018-10-03T05:37:08.311Z,31.9
2018-10-03T05:37:57.798Z,31.9
2018-10-03T05:38:48.170Z,31.9
2018-10-03T05:39:39.286Z,31.9
2018-10-03T05:40:27.978Z,31.9
2018-10-03T05:41:18.616Z,31.9
2018-10-03T05:42:08.123Z,31.8
2018-10-03T05:42:58.449Z,31.9
2018-10-03T05:43:48.788Z,31.8
2018-10-03T05:44:38.010Z,31.8
2018-10-03T05:45:28.911Z,31.8
2018-10-03T05:46:19.017Z,31.8
2018-10-03T05:47:09.345Z,31.8
2018-10-03T05:47:58.518Z,31.8
2018-10-03T05:48:49.377Z,31.8
2018-10-03T05:49:38.412Z,31.8
2018-10-03T05:50:29.325Z,31.8
2018-10-03T05:51:19.340Z,31.8
2018-10-03T05:52:09.107Z,31.8
2018-10-03T05:52:59.735Z,31.8
2018-10-03T05:53:49.055Z,31.8
2018-10-03T05:54:40.364Z,31.8
2018-10-03T05:55:29.212Z,31.8
2018-10-03T05:56:19.393Z,31.8
2018-10-03T05:57:09.779Z,31.8
2018-10-03T05:57:59.597Z,31.8
2018-10-03T05:58:49.629Z,31.8
2018-10-03T05:59:40.225Z,31.8
2018-10-03T06:00:30.023Z,31.8
2018-10-03T06:01:19.797Z,31.8
2018-10-03T06:02:09.594Z,31.8
2018-10-03T06:02:59.858Z,31.8
2018-10-03T06:03:50.258Z,31.7
2018-10-03T06:04:39.806Z,31.7
2018-10-03T06:05:30.383Z,31.7
2018-10-03T06:06:19.620Z,31.7
2018-10-03T06:07:09.682Z,31.7
2018-10-03T06:08:00.295Z,31.7
2018-10-03T06:08:50.468Z,31.7
2018-10-03T06:09:40.205Z,31.7
2018-10-03T06:10:30.807Z,31.7
2018-10-03T06:11:20.242Z,31.7
2018-10-03T06:12:11.315Z,31.7
2018-10-03T06:13:00.110Z,31.7
2018-10-03T06:13:50.422Z,31.7
2018-10-03T06:14:41.054Z,31.6
2018-10-03T06:15:31.627Z,31.6
2018-10-03T06:16:21.177Z,31.7
2018-10-03T06:17:10.981Z,31.7
2018-10-03T06:18:01.319Z,31.7
2018-10-03T06:18:52.066Z,31.8
2018-10-03T06:19:40.334Z,31.8
2018-10-03T06:20:29.717Z,31.8
2018-10-03T06:21:20.824Z,31.8
2018-10-03T06:22:10.549Z,31.8
2018-10-03T06:23:01.454Z,31.8
2018-10-03T06:23:50.614Z,31.9
2018-10-03T06:24:40.229Z,31.9
2018-10-03T06:25:30.464Z,31.9
2018-10-03T06:26:20.334Z,31.9
2018-10-03T06:27:11.331Z,31.9
2018-10-03T06:28:02.320Z,31.9
2018-10-03T06:28:51.298Z,31.9
2018-10-03T06:29:41.383Z,31.9
2018-10-03T06:30:31.336Z,31.9
2018-10-03T06:31:21.858Z,31.9
2018-10-03T06:32:11.728Z,31.9
2018-10-03T06:33:01.715Z,31.9
2018-10-03T06:33:51.446Z,32
2018-10-03T06:34:42.273Z,34.8
2018-10-03T06:35:31.738Z,41.9
2018-10-03T06:36:22.373Z,41.4
2018-10-03T06:37:12.731Z,44.5
2018-10-03T06:38:02.826Z,45.4
2018-10-03T06:38:52.608Z,45.1
2018-10-03T06:39:42.078Z,44.1
2018-10-03T06:40:34.043Z,43.1
2018-10-03T06:41:24.053Z,42.4
2018-10-03T06:42:13.666Z,41.8
2018-10-03T06:43:03.143Z,41.3
2018-10-03T06:43:52.646Z,40.8
2018-10-03T06:44:43.020Z,40.3
2018-10-03T06:45:33.631Z,39.9
2018-10-03T06:46:22.834Z,39.6
2018-10-03T06:47:13.506Z,39.3
2018-10-03T06:48:03.275Z,39
2018-10-03T06:48:53.851Z,38.7
2018-10-03T06:49:43.416Z,38.4
2018-10-03T06:50:33.696Z,38.2
2018-10-03T06:51:23.861Z,38
2018-10-03T06:52:13.553Z,37.8
2018-10-03T06:53:03.326Z,37.5
2018-10-03T06:53:54.248Z,39.6
2018-10-03T06:54:43.481Z,43.7
2018-10-03T06:55:34.215Z,44.3
2018-10-03T06:56:24.403Z,46.4
2018-10-03T06:57:13.788Z,47.4
2018-10-03T06:58:03.985Z,47.3
2018-10-03T06:58:54.618Z,46.8
2018-10-03T06:59:44.676Z,46.7
2018-10-03T07:00:34.767Z,46.8
2018-10-03T07:01:24.285Z,47.1
2018-10-03T07:02:15.358Z,47.4
2018-10-03T07:03:04.097Z,47.6
2018-10-03T07:03:54.405Z,47.8
2018-10-03T07:04:44.477Z,47.9
2018-10-03T07:05:34.528Z,47.9
2018-10-03T07:06:24.611Z,48
2018-10-03T07:07:14.964Z,48.1
2018-10-03T07:08:04.731Z,48.3
2018-10-03T07:08:55.347Z,48.4
2018-10-03T07:09:44.569Z,48.5
2018-10-03T07:10:34.982Z,48.5
2018-10-03T07:11:24.954Z,48.4
2018-10-03T07:12:14.790Z,48.3
2018-10-03T07:13:05.696Z,48.2
2018-10-03T07:13:55.202Z,48.2
2018-10-03T07:14:45.220Z,48.3
2018-10-03T07:15:35.052Z,48.5
2018-10-03T07:16:25.336Z,48.8
2018-10-03T07:17:15.405Z,49
2018-10-03T07:18:05.734Z,49.1
2018-10-03T07:18:56.444Z,49.3
2018-10-03T07:19:45.281Z,49.4
2018-10-03T07:20:35.638Z,49.5
2018-10-03T07:21:26.102Z,49.7
2018-10-03T07:22:16.041Z,49.8
2018-10-03T07:23:06.368Z,49.9
2018-10-03T07:23:56.193Z,50.1
2018-10-03T07:24:46.502Z,50.1
2018-10-03T07:25:36.049Z,50.3
2018-10-03T07:26:26.201Z,50.3
2018-10-03T07:27:16.190Z,50.4
2018-10-03T07:28:06.771Z,50.5
2018-10-03T07:28:56.348Z,50.6
2018-10-03T07:29:46.052Z,50.7
2018-10-03T07:30:36.404Z,50.8
2018-10-03T07:31:26.276Z,50.9
2018-10-03T07:32:16.494Z,50.9
2018-10-03T07:33:06.096Z,51.1
2018-10-03T07:33:56.620Z,51.2
2018-10-03T07:34:46.716Z,51.3
2018-10-03T07:35:36.496Z,51.3
2018-10-03T07:36:27.137Z,51.4
2018-10-03T07:37:16.351Z,51.6
2018-10-03T07:38:07.476Z,51.6
2018-10-03T07:38:57.649Z,51.8
2018-10-03T07:39:47.358Z,51.9
2018-10-03T07:41:27.547Z,52.1
2018-10-03T07:42:17.568Z,52.2
2018-10-03T07:43:07.603Z,52.3
2018-10-03T07:44:47.745Z,52.5
2018-10-03T07:45:36.943Z,52.6
2018-10-03T07:46:27.024Z,52.8
2018-10-03T07:47:17.636Z,52.9
2018-10-03T07:48:08.097Z,53
2018-10-03T07:48:57.796Z,53.1
2018-10-03T07:49:47.814Z,53.3
2018-10-03T07:50:37.906Z,53.4
2018-10-03T07:51:27.671Z,53.5
2018-10-03T07:52:18.031Z,53.6
2018-10-03T07:53:07.779Z,53.8
2018-10-03T07:53:58.464Z,53.9
2018-10-03T07:54:49.003Z,54
2018-10-03T07:55:38.279Z,54.1
2018-10-03T07:56:29.459Z,54.3
2018-10-03T07:57:18.254Z,54.4
2018-10-03T07:58:08.269Z,54.5
2018-10-03T07:58:59.599Z,54.7
2018-10-03T07:59:48.631Z,54.8
2018-10-03T08:00:38.128Z,54.9
2018-10-03T08:01:28.999Z,55.1
2018-10-03T08:02:18.750Z,55.2
2018-10-03T08:03:08.818Z,55.3
2018-10-03T08:03:59.186Z,55.4
2018-10-03T08:04:49.494Z,55.6
2018-10-03T08:05:39.315Z,55.6
2018-10-03T08:06:29.051Z,55.7
2018-10-03T08:07:19.437Z,55.8
2018-10-03T08:08:09.742Z,55.9
2018-10-03T08:08:59.265Z,55.9
2018-10-03T08:09:49.086Z,56.1
2018-10-03T08:10:39.664Z,56.1
2018-10-03T08:11:29.460Z,56.3
2018-10-03T08:12:19.605Z,56.4
2018-10-03T08:13:10.238Z,56.4
2018-10-03T08:13:59.685Z,56.6
2018-10-03T08:14:49.361Z,56.7
2018-10-03T08:15:40.449Z,56.8
2018-10-03T08:16:30.077Z,56.9
2018-10-03T08:17:20.315Z,57.1
2018-10-03T08:18:10.229Z,57.2
2018-10-03T08:19:00.585Z,57.3
2018-10-03T08:19:50.327Z,57.4
2018-10-03T08:20:40.125Z,57.6
2018-10-03T08:21:30.751Z,57.7
2018-10-03T08:22:20.802Z,57.8
2018-10-03T08:23:10.838Z,57.9
2018-10-03T08:24:00.659Z,58.1
2018-10-03T08:24:50.485Z,58.2
2018-10-03T08:25:40.802Z,58.3
2018-10-03T08:26:30.574Z,58.4
2018-10-03T08:27:20.632Z,58.5
2018-10-03T08:28:11.239Z,58.6
2018-10-03T08:29:01.009Z,58.8
2018-10-03T08:29:51.352Z,58.9
2018-10-03T08:30:41.177Z,59
2018-10-03T08:31:31.511Z,59.1
2018-10-03T08:32:22.596Z,59.3
2018-10-03T08:33:12.079Z,59.3
2018-10-03T08:34:01.390Z,59.4
2018-10-03T08:34:51.450Z,59.5
2018-10-03T08:35:41.853Z,59.6
2018-10-03T08:36:31.016Z,59.7
2018-10-03T08:37:21.449Z,59.8
2018-10-03T08:38:11.458Z,59.8
2018-10-03T08:39:01.742Z,59.9
2018-10-03T08:39:51.852Z,60.1
2018-10-03T08:40:42.151Z,60.1
2018-10-03T08:41:32.341Z,60.2
2018-10-03T08:42:22.644Z,60.3
2018-10-03T08:43:11.848Z,60.4
2018-10-03T08:44:02.461Z,60.4
2018-10-03T08:44:52.191Z,60.5
2018-10-03T08:45:44.034Z,60.6
2018-10-03T08:46:32.331Z,60.7
2018-10-03T08:47:22.428Z,60.8
2018-10-03T08:48:11.378Z,60.9
2018-10-03T08:49:01.951Z,61
2018-10-03T08:49:52.614Z,61.1
2018-10-03T08:50:42.106Z,61.2
2018-10-03T08:51:32.135Z,61.3
2018-10-03T08:52:22.527Z,61.3
2018-10-03T09:08:48.165Z,62.7
2018-10-03T09:09:38.147Z,62.8
2018-10-03T09:10:27.597Z,62.9
2018-10-03T09:11:18.306Z,62.9
2018-10-03T09:12:08.074Z,63
2018-10-03T09:12:58.397Z,63.1
2018-10-03T09:13:48.472Z,63.2
2018-10-03T09:14:38.527Z,63.3
2018-10-03T09:15:28.610Z,63.3
2018-10-03T09:16:18.662Z,63.4
2018-10-03T09:17:08.401Z,63.5
2018-10-03T09:17:58.212Z,63.6
2018-10-03T09:18:48.866Z,63.7
2018-10-03T09:19:38.594Z,63.8
2018-10-03T09:20:28.346Z,63.8
2018-10-03T09:21:18.681Z,63.9
2018-10-03T09:22:09.319Z,64.1
2018-10-03T09:22:58.559Z,64.1
2018-10-03T09:23:49.221Z,64.1
2018-10-03T09:24:38.673Z,64.3
2018-10-03T09:25:28.744Z,64.3
2018-10-03T09:26:19.385Z,64.3
2018-10-03T09:27:09.484Z,64.3
2018-10-03T09:27:58.991Z,64.4
2018-10-03T09:28:49.290Z,64.4
2018-10-03T09:29:39.872Z,64.4
2018-10-03T09:30:29.084Z,64.4
2018-10-03T09:31:19.485Z,64.5
2018-10-03T09:32:09.517Z,64.5
2018-10-03T09:32:59.865Z,64.6
2018-10-03T09:33:49.646Z,64.7
2018-10-03T09:34:39.720Z,64.8
2018-10-03T09:35:30.337Z,64.8
2018-10-03T09:36:18.978Z,64.9
2018-10-03T09:37:09.895Z,64.9
2018-10-03T09:38:00.255Z,65
2018-10-03T09:38:50.332Z,65
2018-10-03T09:39:40.540Z,65.1
2018-10-03T09:40:30.805Z,65.1
2018-10-03T09:41:20.209Z,65.2
2018-10-03T09:42:10.555Z,65.2
2018-10-03T09:43:00.383Z,65.1
2018-10-03T09:43:50.717Z,65.1
2018-10-03T09:44:41.634Z,65.2
2018-10-03T09:45:31.038Z,65.3
2018-10-03T09:46:20.590Z,65.3
2018-10-03T09:47:10.943Z,65.3
2018-10-03T09:48:01.007Z,65.2
2018-10-03T09:48:51.048Z,65.1
2018-10-03T09:49:40.543Z,65.1
2018-10-03T09:50:30.605Z,65
2018-10-03T09:51:20.759Z,65.1
2018-10-03T09:52:10.147Z,65.1
2018-10-03T09:53:01.416Z,65.3
2018-10-03T09:53:51.435Z,65.4
2018-10-03T09:54:41.193Z,65.4
2018-10-03T09:55:31.560Z,65.6
2018-10-03T09:56:21.918Z,65.6
2018-10-03T09:57:11.644Z,65.5
2018-10-03T09:58:01.443Z,65.4
2018-10-03T09:58:51.019Z,65.3
2018-10-03T09:59:41.374Z,65.2
2018-10-03T10:00:32.404Z,65.1
2018-10-03T10:01:21.545Z,65.1
2018-10-03T10:02:12.063Z,65.1
2018-10-03T10:03:01.532Z,65.1
2018-10-03T10:03:52.175Z,65.1
2018-10-03T10:04:41.943Z,65.2
2018-10-03T10:05:31.979Z,65.1
2018-10-03T10:06:22.051Z,65.1
2018-10-03T10:07:12.212Z,65.1
2018-10-03T10:08:02.278Z,65
2018-10-03T10:08:52.616Z,65
2018-10-03T10:09:42.620Z,65.1
2018-10-03T10:10:32.138Z,65.1
2018-10-03T10:11:23.967Z,65.2
2018-10-03T10:12:12.778Z,65.3
2018-10-03T10:13:02.873Z,65.3
2018-10-03T10:13:52.933Z,65.4
2018-10-03T10:14:42.999Z,65.5
2018-10-03T10:15:32.293Z,65.6
2018-10-03T10:16:22.836Z,65.6
2018-10-03T10:17:12.619Z,65.6
2018-10-03T10:18:02.960Z,65.8
2018-10-03T10:18:51.963Z,65.8
2018-10-03T10:19:42.866Z,65.9
2018-10-03T10:20:32.955Z,66
2018-10-03T10:21:23.481Z,66.1
2018-10-03T10:22:13.263Z,66.3
2018-10-03T10:23:03.620Z,66.3
2018-10-03T10:23:53.647Z,66.4
2018-10-03T10:24:42.894Z,66.6
2018-10-03T10:25:33.774Z,66.7
2018-10-03T10:26:23.000Z,66.8
2018-10-03T10:27:13.344Z,66.9
2018-10-03T10:28:03.974Z,67
2018-10-03T10:28:53.256Z,67.1
2018-10-03T10:29:44.087Z,67.1
2018-10-03T10:30:33.869Z,67.3
2018-10-03T10:31:23.391Z,67.3
2018-10-03T10:32:15.245Z,67.4
2018-10-03T10:33:06.083Z,67.4
2018-10-03T10:33:54.406Z,67.4
2018-10-03T10:34:44.711Z,67.6
2018-10-03T10:35:34.239Z,67.7
2018-10-03T10:36:24.653Z,67.8
2018-10-03T10:37:14.880Z,67.8
2018-10-03T10:38:04.477Z,67.8
2018-10-03T10:38:54.779Z,67.9
2018-10-03T10:39:44.274Z,67.9
2018-10-03T10:40:38.096Z,67.8
2018-10-03T10:41:27.849Z,67.7
2018-10-03T10:42:14.758Z,67.6
2018-10-03T10:43:04.822Z,67.6
2018-10-03T10:43:55.158Z,67.7
2018-10-03T10:44:44.938Z,67.9
2018-10-03T10:45:35.323Z,68
2018-10-03T10:46:25.356Z,68.1
2018-10-03T10:47:15.115Z,68.3
2018-10-03T10:48:05.706Z,68.4
2018-10-03T10:48:54.969Z,68.4
2018-10-03T10:49:45.646Z,68.5
2018-10-03T10:50:35.990Z,68.6
2018-10-03T10:51:25.706Z,68.6
2018-10-03T10:52:15.491Z,68.7
2018-10-03T10:53:05.830Z,68.7
2018-10-03T10:53:55.355Z,68.8
2018-10-03T10:54:44.822Z,68.8
2018-10-03T10:55:36.013Z,68.9
2018-10-03T10:56:25.472Z,68.9
2018-10-03T10:57:15.545Z,68.9
2018-10-03T10:58:05.918Z,69
2018-10-03T10:58:56.258Z,68.9
2018-10-03T10:59:46.118Z,68.9
2018-10-03T11:00:35.820Z,68.9
2018-10-03T11:01:26.462Z,69
2018-10-03T11:02:15.950Z,69.1
2018-10-03T11:03:06.307Z,69.1
2018-10-03T11:03:56.376Z,69.1
2018-10-03T11:04:46.700Z,69.1
2018-10-03T11:05:36.762Z,69
2018-10-03T11:06:27.856Z,69.1
2018-10-03T11:07:16.608Z,69.1
2018-10-03T11:08:06.377Z,69.1
2018-10-03T11:08:57.010Z,69.1
2018-10-03T11:09:46.809Z,69.1
2018-10-03T11:10:36.839Z,69.1
2018-10-03T11:11:27.209Z,69.1
2018-10-03T11:12:17.251Z,69.3
2018-10-03T11:13:07.631Z,69.4
2018-10-03T11:13:57.096Z,69.5
2018-10-03T11:14:47.171Z,69.6
2018-10-03T11:15:38.019Z,69.6
2018-10-03T11:16:27.032Z,69.7
2018-10-03T11:17:17.636Z,69.8
2018-10-03T11:18:07.140Z,69.8
2018-10-03T11:18:57.486Z,69.8
2018-10-03T11:19:47.559Z,69.9
2018-10-03T11:20:37.594Z,69.9
2018-10-03T11:21:27.098Z,70
2018-10-03T11:22:17.476Z,70.1
2018-10-03T11:23:08.091Z,70.1
2018-10-03T11:24:01.636Z,70.2
2018-10-03T11:24:50.450Z,70.2
2018-10-03T11:25:38.262Z,70.3
2018-10-03T11:26:28.314Z,70.3
2018-10-03T11:27:18.121Z,70.4
2018-10-03T11:28:08.457Z,70.4
2018-10-03T11:28:58.087Z,70.5
2018-10-03T11:29:48.573Z,70.5
2018-10-03T11:30:38.626Z,70.6
2018-10-03T11:31:28.394Z,70.6
2018-10-03T11:32:19.204Z,70.6
2018-10-03T11:33:08.853Z,70.7
2018-10-03T11:33:58.596Z,70.7
2018-10-03T11:34:48.378Z,70.8
2018-10-03T11:35:39.036Z,70.8
2018-10-03T11:36:29.077Z,70.8
2018-10-03T11:37:18.550Z,70.8
2018-10-03T11:38:09.320Z,70.8
2018-10-03T11:38:59.283Z,70.9
2018-10-03T11:39:48.754Z,70.9
2018-10-03T11:40:39.098Z,70.9
2018-10-03T11:41:28.869Z,70.9
2018-10-03T11:42:19.484Z,70.9
2018-10-03T11:43:09.603Z,71
2018-10-03T11:44:00.353Z,71
2018-10-03T11:44:49.745Z,70.9
2018-10-03T11:45:39.205Z,70.9
2018-10-03T11:46:29.020Z,70.9
2018-10-03T11:47:19.859Z,70.9
2018-10-03T11:48:09.968Z,71
2018-10-03T11:49:00.017Z,71
2018-10-03T11:49:49.799Z,71
2018-10-03T11:50:40.194Z,70.9
2018-10-03T11:51:29.915Z,70.9
2018-10-03T11:52:19.680Z,70.9
2018-10-03T11:53:10.312Z,70.9
2018-10-03T11:53:59.822Z,70.9
2018-10-03T11:54:50.435Z,70.9
2018-10-03T11:55:40.502Z,70.9
2018-10-03T11:56:30.567Z,70.9
2018-10-03T11:57:19.479Z,70.9
2018-10-03T11:58:10.706Z,70.9
2018-10-03T11:59:00.489Z,70.9
2018-10-03T11:59:50.574Z,70.9
2018-10-03T12:00:40.616Z,70.9
2018-10-03T12:01:30.632Z,70.9
2018-10-03T12:02:21.001Z,70.8
2018-10-03T12:03:11.915Z,70.8
2018-10-03T12:04:01.179Z,70.8
2018-10-03T12:04:50.896Z,70.9
2018-10-03T12:05:40.957Z,71.1
2018-10-03T12:06:32.159Z,71.1
2018-10-03T12:07:21.411Z,71.2
2018-10-03T12:08:11.206Z,71.3
2018-10-03T12:09:00.689Z,71.3
2018-10-03T12:09:51.002Z,71.3
2018-10-03T12:10:41.334Z,71.4
2018-10-03T12:11:31.396Z,71.4
2018-10-03T12:12:21.759Z,71.4
2018-10-03T12:13:11.238Z,71.4
2018-10-03T12:14:02.155Z,71.4
2018-10-03T12:14:52.216Z,71.3
2018-10-03T12:15:41.788Z,71.3
2018-10-03T12:16:31.788Z,71.3
2018-10-03T12:17:22.101Z,71.3
2018-10-03T12:18:11.938Z,71.3
2018-10-03T12:19:02.495Z,71.2
2018-10-03T12:19:52.868Z,71.1
2018-10-03T12:20:41.838Z,71.1
2018-10-03T12:21:32.380Z,71.1
2018-10-03T12:22:21.960Z,71.1
2018-10-03T12:23:12.247Z,71.1
2018-10-03T12:24:02.279Z,71.1
2018-10-03T12:24:52.445Z,71
2018-10-03T12:25:42.467Z,71
2018-10-03T12:26:33.157Z,71
2018-10-03T12:27:22.849Z,70.9
2018-10-03T12:28:12.109Z,70.9
2018-10-03T12:29:03.225Z,70.8
2018-10-03T12:29:53.039Z,70.7
2018-10-03T12:30:42.825Z,70.6
2018-10-03T12:31:33.439Z,70.6
2018-10-03T12:32:22.959Z,70.6
2018-10-03T12:33:13.250Z,70.7
2018-10-03T12:34:02.769Z,70.7
2018-10-03T12:34:53.877Z,70.7
2018-10-03T12:35:43.487Z,70.6
2018-10-03T12:36:33.059Z,70.6
2018-10-03T12:37:23.604Z,70.6
2018-10-03T12:38:13.387Z,70.6
2018-10-03T12:39:03.704Z,70.5
2018-10-03T12:39:53.504Z,70.5
2018-10-03T12:40:43.599Z,70.5
2018-10-03T12:41:33.638Z,70.4
2018-10-03T12:42:23.423Z,70.3
2018-10-03T12:43:14.044Z,70.2
2018-10-03T12:44:03.899Z,70.1
2018-10-03T12:44:53.645Z,69.9
2018-10-03T12:45:44.248Z,69.9
2018-10-03T12:46:34.003Z,69.8
2018-10-03T12:47:23.788Z,69.6
2018-10-03T12:48:14.449Z,69.6